Flight Track Log - Related Links

Times and Time Zones

All times are in EDT time to prevent confusion due to time zone crossing. See the VNR160 flight status page for this flight to view local times or setup timezone preferences in your user account.

Time Position Orientation Groundspeed Altitude Reporting Facility
EDT Latitude Longitude Course Direction KTS MPH feet Rate Location/Type
Wed 12:17:41 PM 29.4225 -90.2617 178° South 147 169 900  Level Houston Center
Wed 12:18:24 PM 29.3933 -90.2606 178° South 152 175 2,000 892 Climbing Houston Center
Wed 12:18:55 PM 29.3650 -90.2606 180° South 202 232 2,000  Level Houston Center
Wed 12:19:31 PM 29.3264 -90.2608 180° South 219 252 2,000 290 Level Houston Center
Wed 12:20:59 PM 29.2478 -90.2636 182° South 216 249 2,600 1,200 Climbing Houston Center
Wed 12:22:01 PM 29.1931 -90.2581 175° South 205 236 5,000 2,274 Climbing Houston Center
Wed 12:23:03 PM 29.1386 -90.2494 172° South 199 229 7,300 2,323 Climbing Houston Center
Wed 12:24:05 PM 29.0700 -90.2414 174° South 203 234 9,800 2,226 Climbing Houston Center
Wed 12:25:07 PM 29.0311 -90.2817 222° Southwest 197 227 11,900 1,935 Climbing Houston Center
Wed 12:26:09 PM 29.0281 -90.3447 267° West 194 223 13,800 1,887 Climbing Houston Center
Wed 12:27:11 PM 29.0242 -90.4111 266° West 205 236 15,800 1,984 Climbing Houston Center
Wed 12:28:13 PM 29.0208 -90.4775 267° West 208 239 17,900 1,536 Climbing Houston Center
Wed 12:29:16 PM 29.0086 -90.5628 261° West 229 264 19,000 528 Climbing Houston Center
Wed 12:30:18 PM 28.9847 -90.6453 252° West 270 311 19,000  Level Houston Center
Wed 12:31:20 PM 28.9608 -90.7353 253° West 292 336 19,000  Level Houston Center
Wed 12:32:22 PM 28.9367 -90.8239 253° West 294 338 19,000  Level Houston Center
Wed 12:33:24 PM 28.9142 -90.9128 254° West 293 337 19,000 871 Level Houston Center
Wed 12:34:26 PM 28.8969 -90.9978 257° West 278 320 20,800 1,887 Climbing Houston Center
Wed 12:35:28 PM 28.8794 -91.0875 257° West 244 281 22,900 1,065 Climbing Houston Center
Wed 12:36:30 PM 28.8650 -91.1700 259° West 260 299 23,000 48 Climbing Houston Center
Wed 12:37:32 PM 28.8475 -91.2636 258° West 290 334 23,000  Level Houston Center
Wed 12:38:34 PM 28.8322 -91.3631 260° West 310 357 23,000 -48 Level Houston Center
Wed 12:39:37 PM 28.8169 -91.4633 260° West 318 366 22,900  Descending Houston Center
Wed 12:40:39 PM 28.8028 -91.5633 261° West 321 369 23,000 48 Climbing Houston Center
Wed 12:41:41 PM 28.7903 -91.6733 263° West 300 345 23,000  Level Houston Center
Wed 12:42:43 PM 28.7769 -91.7681 261° West 291 335 23,000  Level Houston Center
Wed 12:43:45 PM 28.7617 -91.8592 259° West 292 336 23,000  Level Houston Center
Wed 12:44:47 PM 28.7011 -91.9233 223° Southwest 296 341 23,000  Level Houston Center
Wed 12:45:49 PM 28.6397 -91.9883 223° Southwest 301 346 23,000  Level Houston Center
Wed 12:46:51 PM 28.5911 -92.0589 232° Southwest 292 336 23,000  Level Houston Center
Wed 12:47:53 PM 28.5831 -92.1522 264° West 296 341 23,000  Level Houston Center
Wed 12:48:55 PM 28.5775 -92.2431 266° West 290 334 23,000  Level Houston Center
Wed 12:49:56 PM 28.5794 -92.3603 271° West 303 349 23,000 -49 Level Houston Center
Wed 12:50:58 PM 28.5850 -92.4617 274° West 315 362 22,900  Descending Houston Center
Wed 12:52:00 PM 28.5964 -92.5603 278° West 317 365 23,000 48 Climbing Houston Center
Wed 12:53:02 PM 28.6064 -92.6600 277° West 318 366 23,000  Level Houston Center
Wed 12:54:04 PM 28.6261 -92.7589 283° West 320 368 23,000  Level Houston Center
Wed 12:55:06 PM 28.6594 -92.8528 292° West 323 372 23,000  Level Houston Center
Wed 12:56:08 PM 28.7006 -92.9653 293° West 321 369 23,000  Level Houston Center
Wed 12:57:10 PM 28.7347 -93.0592 293° West 321 369 23,000  Level Houston Center
Wed 12:58:12 PM 28.7697 -93.1533 293° West 322 371 23,000  Level Houston Center
Wed 12:59:14 PM 28.8042 -93.2461 293° West 320 368 23,000  Level Houston Center
Wed 01:00:15 PM 28.8381 -93.3431 292° West 324 373 23,000  Level Houston Center
Wed 01:01:17 PM 28.8722 -93.4361 293° West 323 372 23,000  Level Houston Center
Wed 01:02:19 PM 28.9069 -93.5303 293° West 322 371 23,000  Level Houston Center
Wed 01:03:21 PM 28.9478 -93.6406 293° West 318 366 23,000  Level Houston Center
Wed 01:04:23 PM 28.9819 -93.7364 292° West 322 371 23,000  Level Houston Center
Wed 01:05:25 PM 29.0169 -93.8333 292° West 327 376 23,000  Level Houston Center
Wed 01:06:27 PM 29.0508 -93.9294 292° West 327 376 23,000  Level Houston Center
Wed 01:07:29 PM 29.0844 -94.0267 292° West 328 377 23,000  Level Houston Center
Wed 01:08:30 PM 29.1189 -94.1225 292° West 328 377 23,000  Level Houston Center
Wed 01:09:32 PM 29.1531 -94.2183 292° West 327 376 23,000  Level Houston Center
Wed 01:10:34 PM 29.1942 -94.3342 292° West 327 376 23,000 -48 Level Houston Center
Wed 01:11:36 PM 29.2281 -94.4328 292° West 330 380 22,900 -435 Descending Houston Center
Wed 01:12:38 PM 29.2639 -94.5317 293° West 334 384 22,100 -435 Descending Houston Center
Wed 01:13:40 PM 29.2983 -94.6319 292° West 338 389 22,000 -48 Descending Houston Center
Wed 01:14:42 PM 29.3336 -94.7289 293° West 333 383 22,000  Level Houston Center
Wed 01:16:00 PM 29.3757 -94.8460 292° West  Level FlightAware Approximate
Wed 01:16:45 PM 29.3989 -94.9219 292° West 326 375 22,000  Level Houston Center
Wed 01:17:47 PM 29.4408 -95.0394 292° West 330 380 22,000  Level Houston Center
Wed 01:18:49 PM 29.4722 -95.1325 291° West 331 381 22,000  Level Houston Center
Wed 01:19:51 PM 29.5069 -95.2311 292° West 331 381 22,000  Level Houston Center
Wed 01:20:52 PM 29.5403 -95.3283 292° West 330 380 22,000  Level Houston Center
Wed 01:21:54 PM 29.5736 -95.4253 292° West 326 375 22,000  Level Houston Center
Wed 01:22:56 PM 29.6128 -95.5425 291° West 329 379 22,000  Level Houston Center
Wed 01:23:58 PM 29.6461 -95.6389 292° West 327 376 22,000  Level Houston Center
Wed 01:25:00 PM 29.6803 -95.7356 292° West 326 375 22,000  Level Houston Center
Wed 01:26:01 PM 29.7119 -95.8322 291° West 325 374 22,000 -244 Level Houston Center
Wed 01:27:03 PM 29.7447 -95.9286 291° West 325 374 21,500 -726 Descending Houston Center
Wed 01:28:05 PM 29.7758 -96.0256 290° West 324 373 20,500 -1,065 Descending Houston Center
Wed 01:29:07 PM 29.8136 -96.1386 291° West 318 366 19,300 -1,065 Descending Houston Center
Wed 01:30:09 PM 29.8433 -96.2300 291° West 309 356 18,300 -878 Descending Houston Center
Wed 01:31:10 PM 29.8728 -96.3186 291° West 299 344 17,500 -878 Descending Houston Center
Wed 01:32:12 PM 29.9025 -96.4089 291° West 302 348 16,500 -1,016 Descending Houston Center
Wed 01:33:14 PM 29.9311 -96.4989 290° West 301 346 15,400 -1,016 Descending Houston Center
Wed 01:34:16 PM 29.9600 -96.5917 290° West 307 353 14,400 -1,210 Descending Houston Center
Wed 01:35:18 PM 29.9950 -96.7003 290° West 303 349 12,900 -1,258 Descending Houston Center
Wed 01:36:20 PM 30.0239 -96.7908 290° West 303 349 11,800 -968 Descending Houston Center
Wed 01:37:22 PM 30.0531 -96.8811 290° West 303 349 10,900 -683 Descending Houston Center
Wed 01:38:23 PM 30.0686 -96.9714 281° West 292 336 10,400 -780 Descending Houston Center
Wed 01:39:25 PM 30.0747 -97.0636 274° West 288 331 9,300 -1,016 Descending Houston Center
Wed 01:40:27 PM 30.0803 -97.1528 274° West 284 327 8,300 -1,016 Descending Houston Center
Wed 01:41:29 PM 30.0864 -97.2544 274° West 273 314 7,200 -919 Descending Houston Center
Wed 01:42:31 PM 30.0917 -97.3292 275° West 259 298 6,400 -581 Descending Houston Center
Wed 01:43:33 PM 30.0975 -97.4172 274° West 265 305 6,000 -726 Descending Houston Center
Wed 01:44:35 PM 30.1039 -97.5044 275° West 269 310 4,900 -1,366 Descending Houston Center
Wed 01:45:36 PM 30.1033 -97.5914 270° West 237 273 3,200 -1,317 Descending Houston Center
Wed 01:46:38 PM 30.1181 -97.6400 289° West 177 204 2,200 -919 Descending Houston Center
Wed 01:47:40 PM 30.1469 -97.6597 329° Northwest 143 165 1,300 -871 Descending Houston Center
Wed 01:49:00 PM 30.1833 -97.6667 270° West  Level FlightAware Approximate
Wed 01:56:00 PM 30.1945 -97.6699 270° West  Level Estimated

Login

Don't have an account? Register now (free) for customized features, flight alerts, and more!